Albany, New York
Traffic Map
Current Weather Conditions
Albany, New York
Overcast
Overcast
14°
Feels Like: 14°
Wind Chill: 14° Ceiling: 6000
Heat Index: 14° Visibility: 8mi
Dew Point: 13° Wind: 3mph
Humidity: 90% Direction: 360° (N)
Pressure: 30.14in Gusts: 0mph
Raw Report DataKALB 020951Z 36003KT 8SM FEW006 SCT028 OVC060 14/13 A3014 RMK AO2 SLP206 T01440128
Traffic Incident Summary
Active as of:
Severity:
Category:
InformationThere was an issue retrieving the traffic information for this location. Please try a different location or try again shortly.
Advertisements
Track Severe Weather on mobile